Time;durP1;ratioP1;P1;durP2;ratioP2;P2;SDS_P1;SDS_P2;PMS_P1;PMS_P2;Temp;Humidity;BMP_temperature;BMP_pressure;BME280_temperature;BME280_humidity;BME280_pressure;Samples;Min_cycle;Max_cycle;Signal;HPM_P1;HPM_P2
2021/12/07 00:01:00;;;;;;;35.8;42.7;;;;;;;1.7;80.1;98310;;;;
2021/12/07 00:12:04;;;;;;;35.8;42.7;;;;;;;1.7;80.2;98270;;;;
2021/12/07 00:22:00;;;;;;;35.8;42.7;;;;;;;1.8;80.1;98280;;;;
2021/12/07 00:33:10;;;;;;;34;40;;;;;;;1.8;79.9;98290;;;;
2021/12/07 00:43:00;;;;;;;34;40;;;;;;;1.8;79.6;98290;;;;
2021/12/07 00:53:02;;;;;;;34;40;;;;;;;1.7;79.7;98290;;;;
2021/12/07 01:04:00;;;;;;;34.9;45.5;;;;;;;1.7;80;98280;;;;
2021/12/07 01:25:00;;;;;;;34.9;45.5;;;;;;;1.6;80.2;98270;;;;
2021/12/07 01:36:14;;;;;;;33.4;42.5;;;;;;;1.8;80;98280;;;;
2021/12/07 01:47:22;;;;;;;33.4;42.5;;;;;;;1.7;79.6;98270;;;;
2021/12/07 02:08:00;;;;;;;30;35;;;;;;;1.3;78.8;98260;;;;
2021/12/07 02:19:00;;;;;;;30;35;;;;;;;1.2;78.8;98260;;;;
2021/12/07 02:29:00;;;;;;;17.8;21.6;;;;;;;1.3;79.1;98260;;;;
2021/12/07 02:40:00;;;;;;;17.8;21.6;;;;;;;1.1;79.4;98260;;;;
2021/12/07 02:50:00;;;;;;;17.8;21.6;;;;;;;1.1;79.2;98250;;;;
2021/12/07 03:00:06;;;;;;;15.4;18.8;;;;;;;1.2;78.7;98250;;;;
2021/12/07 03:32:00;;;;;;;15.3;19.6;;;;;;;1.5;78.5;98280;;;;
2021/12/07 03:42:00;;;;;;;15.3;19.6;;;;;;;1.5;78.3;98280;;;;
2021/12/07 03:53:00;;;;;;;15.3;19.6;;;;;;;1.4;78.1;98290;;;;
2021/12/07 04:03:03;;;;;;;18.2;24.5;;;;;;;1.3;78.5;98280;;;;
2021/12/07 04:14:00;;;;;;;18.2;24.5;;;;;;;1.2;78.9;98300;;;;
2021/12/07 04:24:00;;;;;;;18.2;24.5;;;;;;;1.1;79;98310;;;;
2021/12/07 04:35:00;;;;;;;19.3;24.2;;;;;;;1.1;79.4;98300;;;;
2021/12/07 04:45:04;;;;;;;19.3;24.2;;;;;;;1.1;79;98300;;;;
2021/12/07 05:07:07;;;;;;;18.4;23.1;;;;;;;0.9;79.5;98300;;;;
2021/12/07 05:17:15;;;;;;;18.4;23.1;;;;;;;1;79.6;98310;;;;
2021/12/07 05:38:04;;;;;;;16.9;25.3;;;;;;;0.9;78.9;98300;;;;
2021/12/07 05:47:00;;;;;;;16.9;25.3;;;;;;;0.7;79.1;98300;;;;
2021/12/07 05:58:00;;;;;;;15.6;21.7;;;;;;;0.8;79.5;98300;;;;
2021/12/07 06:08:00;;;;;;;15.6;21.7;;;;;;;0.8;79.4;98310;;;;
2021/12/07 06:18:00;;;;;;;15.6;21.7;;;;;;;0.7;79.9;98310;;;;
2021/12/07 06:29:00;;;;;;;16.7;25.4;;;;;;;0.7;80.4;98310;;;;
2021/12/07 06:39:00;;;;;;;16.7;25.4;;;;;;;0.6;80.7;98310;;;;
2021/12/07 06:49:00;;;;;;;16.7;25.4;;;;;;;0.7;81.3;98320;;;;
2021/12/07 06:59:00;;;;;;;19.6;25.7;;;;;;;0.6;80.4;98340;;;;
2021/12/07 07:09:00;;;;;;;19.6;25.7;;;;;;;0.6;80.2;98340;;;;
2021/12/07 07:19:00;;;;;;;19.6;25.7;;;;;;;0.7;80.2;98350;;;;
2021/12/07 07:30:00;;;;;;;21;32.4;;;;;;;0.7;80.4;98360;;;;
2021/12/07 07:40:00;;;;;;;21;32.4;;;;;;;0.8;80.5;98370;;;;
2021/12/07 07:51:01;;;;;;;21;32.4;;;;;;;0.7;80.2;98360;;;;
2021/12/07 08:02:00;;;;;;;20.7;31.5;;;;;;;0.8;80.1;98370;;;;
2021/12/07 08:13:00;;;;;;;20.7;31.5;;;;;;;0.9;80;98370;;;;
2021/12/07 08:24:00;;;;;;;20.7;31.5;;;;;;;1;79.6;98370;;;;
2021/12/07 08:34:00;;;;;;;22.4;28.8;;;;;;;1.2;79.3;98370;;;;
2021/12/07 08:45:00;;;;;;;22.4;28.8;;;;;;;1.1;79.2;98370;;;;
2021/12/07 09:07:00;;;;;;;24.5;31.9;;;;;;;1;78.9;98370;;;;
2021/12/07 09:17:00;;;;;;;24.5;31.9;;;;;;;0.9;78.7;98370;;;;
2021/12/07 09:27:00;;;;;;;25.1;34;;;;;;;1;78.8;98370;;;;
2021/12/07 09:37:00;;;;;;;25.1;34;;;;;;;1;78;98370;;;;
2021/12/07 09:48:00;;;;;;;25.1;34;;;;;;;1;78;98370;;;;
2021/12/07 09:58:00;;;;;;;26.2;31.6;;;;;;;0.8;78.7;98370;;;;
2021/12/07 10:08:00;;;;;;;26.2;31.6;;;;;;;0.9;78.6;98370;;;;
2021/12/07 10:19:00;;;;;;;26.2;31.6;;;;;;;0.9;79.1;98370;;;;
2021/12/07 10:29:00;;;;;;;28.5;39.3;;;;;;;0.8;79.2;98380;;;;
2021/12/07 10:40:00;;;;;;;28.5;39.3;;;;;;;1;79.3;98370;;;;
2021/12/07 10:51:00;;;;;;;28.5;39.3;;;;;;;0.9;79.6;98380;;;;
2021/12/07 11:01:00;;;;;;;27.5;37.4;;;;;;;0.8;79.2;98380;;;;
2021/12/07 11:12:00;;;;;;;27.5;37.4;;;;;;;1.1;79;98370;;;;
2021/12/07 11:22:00;;;;;;;27.5;37.4;;;;;;;1.1;79.1;98380;;;;
2021/12/07 11:33:01;;;;;;;28.5;35.3;;;;;;;1.1;78.7;98380;;;;
2021/12/07 11:44:00;;;;;;;28.5;35.3;;;;;;;0.9;79.3;98380;;;;
2021/12/07 11:55:00;;;;;;;27;34.9;;;;;;;0.8;78.8;98370;;;;
2021/12/07 12:06:00;;;;;;;27;34.9;;;;;;;0.7;78.7;98380;;;;
2021/12/07 12:17:00;;;;;;;27;34.9;;;;;;;0.8;78.5;98380;;;;
2021/12/07 12:28:00;;;;;;;25.6;32.2;;;;;;;0.9;78.6;98390;;;;
2021/12/07 12:38:00;;;;;;;25.6;32.2;;;;;;;1;78;98380;;;;
2021/12/07 12:48:01;;;;;;;25.6;32.2;;;;;;;0.8;78.1;98390;;;;
2021/12/07 12:59:00;;;;;;;23.9;32.9;;;;;;;0.5;79;98400;;;;
2021/12/07 13:10:00;;;;;;;23.9;32.9;;;;;;;0.7;78.6;98400;;;;
2021/12/07 13:21:00;;;;;;;23.9;32.9;;;;;;;0.8;78.6;98420;;;;
2021/12/07 13:32:00;;;;;;;26.6;39.4;;;;;;;0.8;78.7;98420;;;;
2021/12/07 13:42:00;;;;;;;26.6;39.4;;;;;;;0.8;78.8;98420;;;;
2021/12/07 13:52:00;;;;;;;26.6;39.4;;;;;;;0.9;78.9;98430;;;;
2021/12/07 14:02:00;;;;;;;27;37.8;;;;;;;0.9;78.7;98440;;;;
2021/12/07 14:13:00;;;;;;;27;37.8;;;;;;;0.8;78.8;98450;;;;
2021/12/07 14:24:04;;;;;;;27.3;36.5;;;;;;;0.5;79.7;98470;;;;
2021/12/07 14:34:00;;;;;;;27.3;36.5;;;;;;;0.5;79.8;98480;;;;
2021/12/07 14:44:00;;;;;;;27.3;36.5;;;;;;;0.4;79.4;98470;;;;
2021/12/07 14:55:01;;;;;;;27.2;38.7;;;;;;;0.4;79.9;98470;;;;
2021/12/07 15:05:00;;;;;;;27.2;38.7;;;;;;;0.3;80.2;98480;;;;
2021/12/07 15:15:00;;;;;;;27.2;38.7;;;;;;;0.3;80.2;98490;;;;
2021/12/07 15:26:00;;;;;;;43.1;53.3;;;;;;;0.1;80.4;98510;;;;
2021/12/07 15:36:00;;;;;;;43.1;53.3;;;;;;;0.2;79.9;98510;;;;
2021/12/07 15:46:00;;;;;;;43.1;53.3;;;;;;;0.1;79.8;98510;;;;
2021/12/07 15:57:00;;;;;;;30.3;44.6;;;;;;;0.1;79.7;98510;;;;
2021/12/07 16:08:01;;;;;;;30.3;44.6;;;;;;;0;79.5;98530;;;;
2021/12/07 16:19:00;;;;;;;30.3;44.6;;;;;;;0.1;79.3;98530;;;;
2021/12/07 16:29:00;;;;;;;27.7;39.8;;;;;;;0;79.5;98530;;;;
2021/12/07 16:40:00;;;;;;;27.7;39.8;;;;;;;-0.2;80.2;98530;;;;
2021/12/07 16:51:00;;;;;;;27.7;39.8;;;;;;;-0.1;79.9;98530;;;;
2021/12/07 17:01:00;;;;;;;30.4;38.1;;;;;;;-0.3;80.3;98520;;;;
2021/12/07 17:12:00;;;;;;;30.4;38.1;;;;;;;-0.3;80.5;98510;;;;
2021/12/07 17:23:00;;;;;;;31.7;44.2;;;;;;;-0.4;80.2;98510;;;;
2021/12/07 17:33:00;;;;;;;31.7;44.2;;;;;;;-0.3;80.1;98510;;;;
2021/12/07 17:43:00;;;;;;;31.7;44.2;;;;;;;-0.1;80.1;98510;;;;
2021/12/07 17:54:00;;;;;;;35.2;53.2;;;;;;;-0.2;80.4;98520;;;;
2021/12/07 18:05:00;;;;;;;35.2;53.2;;;;;;;-0.2;80.7;98500;;;;
2021/12/07 18:16:00;;;;;;;35.2;53.2;;;;;;;-0.2;81;98500;;;;
2021/12/07 18:26:00;;;;;;;36.9;56.3;;;;;;;-0.3;81.3;98510;;;;
2021/12/07 18:37:00;;;;;;;36.9;56.3;;;;;;;-0.2;80.8;98510;;;;
2021/12/07 18:48:01;;;;;;;36.9;56.3;;;;;;;-0.3;81.2;98510;;;;
2021/12/07 18:59:00;;;;;;;40.1;57.8;;;;;;;-0.5;81.5;98510;;;;
2021/12/07 19:09:00;;;;;;;40.1;57.8;;;;;;;-0.4;81.1;98520;;;;
2021/12/07 19:19:01;;;;;;;40.1;57.8;;;;;;;-0.4;80.7;98530;;;;
2021/12/07 19:30:00;;;;;;;40.1;58;;;;;;;-0.3;80.9;98520;;;;
2021/12/07 19:40:00;;;;;;;40.1;58;;;;;;;-0.4;80.8;98530;;;;
2021/12/07 19:50:00;;;;;;;40.1;58;;;;;;;-0.5;81;98520;;;;
2021/12/07 20:01:00;;;;;;;36.3;54.1;;;;;;;-0.5;81.1;98520;;;;
2021/12/07 20:12:02;;;;;;;36.3;54.1;;;;;;;-0.6;81.5;98520;;;;
2021/12/07 20:22:01;;;;;;;36.3;54.1;;;;;;;-0.5;81.8;98520;;;;
2021/12/07 20:33:00;;;;;;;37.9;51.9;;;;;;;-0.6;81.8;98520;;;;
2021/12/07 20:44:01;;;;;;;37.9;51.9;;;;;;;-0.7;82;98520;;;;
2021/12/07 20:55:00;;;;;;;42.2;61.6;;;;;;;-0.6;81.7;98520;;;;
2021/12/07 21:05:00;;;;;;;42.2;61.6;;;;;;;-0.7;82.1;98520;;;;
2021/12/07 21:16:00;;;;;;;42.2;61.6;;;;;;;-0.9;82.5;98510;;;;
2021/12/07 21:26:00;;;;;;;43.6;58.9;;;;;;;-0.9;83.1;98520;;;;
2021/12/07 21:37:00;;;;;;;43.6;58.9;;;;;;;-0.8;82.5;98510;;;;
2021/12/07 21:47:00;;;;;;;43.6;58.9;;;;;;;-0.9;82.3;98510;;;;
2021/12/07 21:58:00;;;;;;;39.2;61.3;;;;;;;-0.9;82.7;98510;;;;
2021/12/07 22:08:00;;;;;;;39.2;61.3;;;;;;;-1.1;83.1;98490;;;;
2021/12/07 22:18:00;;;;;;;39.2;61.3;;;;;;;-1.1;83.2;98480;;;;
2021/12/07 22:28:00;;;;;;;38.2;48;;;;;;;-1.1;82.7;98480;;;;
2021/12/07 22:39:00;;;;;;;38.2;48;;;;;;;-1.2;82.6;98470;;;;
2021/12/07 22:49:01;;;;;;;38.2;48;;;;;;;-1;81.9;98470;;;;
2021/12/07 23:00:00;;;;;;;30.3;45.4;;;;;;;-1.1;82.3;98460;;;;
2021/12/07 23:11:03;;;;;;;30.3;45.4;;;;;;;-1.2;82.8;98470;;;;
2021/12/07 23:22:00;;;;;;;31.6;51.4;;;;;;;-1.2;82.8;98470;;;;
2021/12/07 23:32:00;;;;;;;31.6;51.4;;;;;;;-1.3;83.1;98460;;;;
2021/12/07 23:43:00;;;;;;;31.6;51.4;;;;;;;-1.4;83.4;98440;;;;
2021/12/07 23:53:00;;;;;;;31.1;54;;;;;;;-1.4;83.5;98430;;;;
